Portada
METAR-TAF:

METAR-TAF

Aeroports :

Pontianak, Indonèsia

latitud: 00-09S, longitud: 109-24E, altitud: 3 m

Observació

L'informe es va fer fa 10 minuts, a les 03:30 UTC
Vent calma
Temperatura 30°C
Humitat 75%
Pressió 1010 hPa
Visibilitat 10 km o més
Cel ennuvolat a una alçada de 1100 ft

METAR: WIOO 200330Z 00000KT 9999 BKN011 30/25 Q1010 NOSIG

Hora: 10:40 (03:40 UTC)


TAF: manca

Observacions i pronòstics meteorològics de més de 4000 aeroports (METAR i TAF).

Les estacions disponibles són els punts grocs i vermells al mapa.

Posi el ratolí al punt desitjat per veure el nom de l'estació.

Feu clic per veure les observacions i els pronòstics meteorològics.

Per canviar el mapa: feu clic els botons verds amb una creu de color negre per apropar; al botó verd amb un guió per allunyar la imatge; o en les fletxes verdes per a mapes adjacents.


METAR-TAF: